sensor_id;sensor_type;location;lat;lon;timestamp;P1;durP1;ratioP1;P2;durP2;ratioP2
6821;SDS011;3449;48.728;8.968;2022-09-23T00:00:38;5.03;;;4.10;;
6821;SDS011;3449;48.728;8.968;2022-09-23T00:03:05;8.97;;;3.70;;
6821;SDS011;3449;48.728;8.968;2022-09-23T00:05:32;5.63;;;4.10;;
6821;SDS011;3449;48.728;8.968;2022-09-23T00:08:01;5.63;;;4.03;;
6821;SDS011;3449;48.728;8.968;2022-09-23T00:10:28;4.13;;;3.63;;
6821;SDS011;3449;48.728;8.968;2022-09-23T00:12:56;6.83;;;4.40;;
6821;SDS011;3449;48.728;8.968;2022-09-23T00:15:23;5.00;;;3.97;;
6821;SDS011;3449;48.728;8.968;2022-09-23T00:17:51;5.40;;;3.73;;
6821;SDS011;3449;48.728;8.968;2022-09-23T00:20:18;5.17;;;3.60;;
6821;SDS011;3449;48.728;8.968;2022-09-23T00:22:45;5.93;;;4.23;;
6821;SDS011;3449;48.728;8.968;2022-09-23T00:25:13;5.80;;;3.43;;
6821;SDS011;3449;48.728;8.968;2022-09-23T00:27:40;6.30;;;4.00;;
6821;SDS011;3449;48.728;8.968;2022-09-23T00:30:08;6.77;;;4.63;;
6821;SDS011;3449;48.728;8.968;2022-09-23T00:32:35;5.37;;;3.57;;
6821;SDS011;3449;48.728;8.968;2022-09-23T00:35:04;4.90;;;3.50;;
6821;SDS011;3449;48.728;8.968;2022-09-23T00:37:32;8.37;;;4.77;;
6821;SDS011;3449;48.728;8.968;2022-09-23T00:39:59;4.27;;;3.87;;
6821;SDS011;3449;48.728;8.968;2022-09-23T00:42:28;11.43;;;4.90;;
6821;SDS011;3449;48.728;8.968;2022-09-23T00:44:56;11.17;;;4.80;;
6821;SDS011;3449;48.728;8.968;2022-09-23T00:47:28;6.80;;;4.00;;
6821;SDS011;3449;48.728;8.968;2022-09-23T00:49:58;7.77;;;4.60;;
6821;SDS011;3449;48.728;8.968;2022-09-23T00:52:30;7.00;;;3.93;;
6821;SDS011;3449;48.728;8.968;2022-09-23T00:54:58;5.77;;;3.17;;
6821;SDS011;3449;48.728;8.968;2022-09-23T00:57:29;6.97;;;3.63;;
6821;SDS011;3449;48.728;8.968;2022-09-23T00:59:56;6.20;;;3.53;;
6821;SDS011;3449;48.728;8.968;2022-09-23T01:02:23;7.00;;;4.57;;
6821;SDS011;3449;48.728;8.968;2022-09-23T01:04:52;7.77;;;4.43;;
6821;SDS011;3449;48.728;8.968;2022-09-23T01:07:19;4.40;;;3.83;;
6821;SDS011;3449;48.728;8.968;2022-09-23T01:09:46;4.30;;;3.43;;
6821;SDS011;3449;48.728;8.968;2022-09-23T01:12:18;5.73;;;3.73;;
6821;SDS011;3449;48.728;8.968;2022-09-23T01:15:00;6.70;;;3.47;;
6821;SDS011;3449;48.728;8.968;2022-09-23T01:17:35;5.27;;;4.07;;
6821;SDS011;3449;48.728;8.968;2022-09-23T01:20:18;5.10;;;3.30;;
6821;SDS011;3449;48.728;8.968;2022-09-23T01:23:18;4.40;;;3.10;;
6821;SDS011;3449;48.728;8.968;2022-09-23T01:26:12;3.83;;;3.10;;
6821;SDS011;3449;48.728;8.968;2022-09-23T01:29:09;4.80;;;3.40;;
6821;SDS011;3449;48.728;8.968;2022-09-23T01:31:55;5.10;;;4.17;;
6821;SDS011;3449;48.728;8.968;2022-09-23T01:34:30;11.53;;;4.27;;
6821;SDS011;3449;48.728;8.968;2022-09-23T01:37:03;8.60;;;4.17;;
6821;SDS011;3449;48.728;8.968;2022-09-23T01:39:35;6.23;;;3.47;;
6821;SDS011;3449;48.728;8.968;2022-09-23T01:42:09;4.50;;;2.90;;
6821;SDS011;3449;48.728;8.968;2022-09-23T01:44:44;6.63;;;3.73;;
6821;SDS011;3449;48.728;8.968;2022-09-23T01:47:16;4.73;;;3.93;;
6821;SDS011;3449;48.728;8.968;2022-09-23T01:49:50;5.57;;;3.40;;
6821;SDS011;3449;48.728;8.968;2022-09-23T01:52:22;6.10;;;3.97;;
6821;SDS011;3449;48.728;8.968;2022-09-23T01:54:54;8.10;;;3.87;;
6821;SDS011;3449;48.728;8.968;2022-09-23T01:57:27;3.50;;;2.90;;
6821;SDS011;3449;48.728;8.968;2022-09-23T02:00:00;7.40;;;2.73;;
6821;SDS011;3449;48.728;8.968;2022-09-23T02:02:32;7.17;;;3.43;;
6821;SDS011;3449;48.728;8.968;2022-09-23T02:05:09;5.03;;;3.17;;
6821;SDS011;3449;48.728;8.968;2022-09-23T02:07:42;5.10;;;2.90;;
6821;SDS011;3449;48.728;8.968;2022-09-23T02:10:12;3.67;;;3.30;;
6821;SDS011;3449;48.728;8.968;2022-09-23T02:12:44;4.27;;;3.03;;
6821;SDS011;3449;48.728;8.968;2022-09-23T02:15:14;5.10;;;3.77;;
6821;SDS011;3449;48.728;8.968;2022-09-23T02:17:45;5.17;;;4.10;;
6821;SDS011;3449;48.728;8.968;2022-09-23T02:20:18;5.57;;;4.17;;
6821;SDS011;3449;48.728;8.968;2022-09-23T02:22:50;9.60;;;5.20;;
6821;SDS011;3449;48.728;8.968;2022-09-23T02:25:21;7.70;;;4.50;;
6821;SDS011;3449;48.728;8.968;2022-09-23T02:27:53;6.20;;;4.67;;
6821;SDS011;3449;48.728;8.968;2022-09-23T02:30:27;6.70;;;6.00;;
6821;SDS011;3449;48.728;8.968;2022-09-23T02:32:59;43.30;;;31.87;;
6821;SDS011;3449;48.728;8.968;2022-09-23T02:35:32;117.13;;;65.63;;
6821;SDS011;3449;48.728;8.968;2022-09-23T02:38:08;70.93;;;43.73;;
6821;SDS011;3449;48.728;8.968;2022-09-23T02:40:45;66.03;;;42.70;;
6821;SDS011;3449;48.728;8.968;2022-09-23T02:43:19;41.03;;;30.53;;
6821;SDS011;3449;48.728;8.968;2022-09-23T02:45:48;14.40;;;11.30;;
6821;SDS011;3449;48.728;8.968;2022-09-23T02:48:17;8.17;;;6.50;;
6821;SDS011;3449;48.728;8.968;2022-09-23T02:50:46;7.80;;;4.33;;
6821;SDS011;3449;48.728;8.968;2022-09-23T02:53:13;6.43;;;3.87;;
6821;SDS011;3449;48.728;8.968;2022-09-23T02:55:41;5.07;;;3.63;;
6821;SDS011;3449;48.728;8.968;2022-09-23T02:58:08;5.07;;;3.47;;
6821;SDS011;3449;48.728;8.968;2022-09-23T03:00:39;4.73;;;3.30;;
6821;SDS011;3449;48.728;8.968;2022-09-23T03:03:19;5.10;;;3.20;;
6821;SDS011;3449;48.728;8.968;2022-09-23T03:05:56;4.27;;;3.10;;
6821;SDS011;3449;48.728;8.968;2022-09-23T03:08:27;3.47;;;2.93;;
6821;SDS011;3449;48.728;8.968;2022-09-23T03:11:03;5.90;;;3.60;;
6821;SDS011;3449;48.728;8.968;2022-09-23T03:13:33;5.03;;;3.03;;
6821;SDS011;3449;48.728;8.968;2022-09-23T03:16:09;7.20;;;3.53;;
6821;SDS011;3449;48.728;8.968;2022-09-23T03:18:43;7.17;;;3.23;;
6821;SDS011;3449;48.728;8.968;2022-09-23T03:21:18;5.33;;;3.30;;
6821;SDS011;3449;48.728;8.968;2022-09-23T03:23:50;4.03;;;3.43;;
6821;SDS011;3449;48.728;8.968;2022-09-23T03:26:22;5.60;;;3.10;;
6821;SDS011;3449;48.728;8.968;2022-09-23T03:28:53;6.20;;;3.53;;
6821;SDS011;3449;48.728;8.968;2022-09-23T03:31:20;6.43;;;3.37;;
6821;SDS011;3449;48.728;8.968;2022-09-23T03:33:49;3.23;;;2.97;;
6821;SDS011;3449;48.728;8.968;2022-09-23T03:36:20;4.23;;;3.80;;
6821;SDS011;3449;48.728;8.968;2022-09-23T03:39:10;4.33;;;3.33;;
6821;SDS011;3449;48.728;8.968;2022-09-23T03:41:44;7.10;;;2.80;;
6821;SDS011;3449;48.728;8.968;2022-09-23T03:44:16;5.10;;;3.50;;
6821;SDS011;3449;48.728;8.968;2022-09-23T03:46:44;3.17;;;2.80;;
6821;SDS011;3449;48.728;8.968;2022-09-23T03:49:15;8.73;;;4.77;;
6821;SDS011;3449;48.728;8.968;2022-09-23T03:51:44;7.70;;;3.97;;
6821;SDS011;3449;48.728;8.968;2022-09-23T03:54:10;7.90;;;3.97;;
6821;SDS011;3449;48.728;8.968;2022-09-23T03:56:37;4.10;;;3.27;;
6821;SDS011;3449;48.728;8.968;2022-09-23T03:59:04;3.73;;;3.20;;
6821;SDS011;3449;48.728;8.968;2022-09-23T04:01:31;4.30;;;3.33;;
6821;SDS011;3449;48.728;8.968;2022-09-23T04:03:58;3.00;;;2.70;;
6821;SDS011;3449;48.728;8.968;2022-09-23T04:06:27;7.80;;;3.50;;
6821;SDS011;3449;48.728;8.968;2022-09-23T04:08:53;5.33;;;3.90;;
6821;SDS011;3449;48.728;8.968;2022-09-23T04:11:20;4.83;;;3.37;;
6821;SDS011;3449;48.728;8.968;2022-09-23T04:13:47;6.17;;;3.73;;
6821;SDS011;3449;48.728;8.968;2022-09-23T04:16:14;3.53;;;3.20;;
6821;SDS011;3449;48.728;8.968;2022-09-23T04:18:41;5.27;;;3.40;;
6821;SDS011;3449;48.728;8.968;2022-09-23T04:21:08;5.17;;;4.17;;
6821;SDS011;3449;48.728;8.968;2022-09-23T04:23:36;5.07;;;4.03;;
6821;SDS011;3449;48.728;8.968;2022-09-23T04:26:03;7.43;;;4.10;;
6821;SDS011;3449;48.728;8.968;2022-09-23T04:28:30;5.10;;;3.83;;
6821;SDS011;3449;48.728;8.968;2022-09-23T04:30:57;5.33;;;3.90;;
6821;SDS011;3449;48.728;8.968;2022-09-23T04:33:24;5.27;;;3.87;;
6821;SDS011;3449;48.728;8.968;2022-09-23T04:35:51;8.63;;;4.57;;
6821;SDS011;3449;48.728;8.968;2022-09-23T04:38:18;8.13;;;4.40;;
6821;SDS011;3449;48.728;8.968;2022-09-23T04:40:47;6.53;;;4.10;;
6821;SDS011;3449;48.728;8.968;2022-09-23T04:43:14;5.60;;;3.73;;
6821;SDS011;3449;48.728;8.968;2022-09-23T04:45:42;6.80;;;4.30;;
6821;SDS011;3449;48.728;8.968;2022-09-23T04:48:09;7.80;;;4.70;;
6821;SDS011;3449;48.728;8.968;2022-09-23T04:50:38;5.87;;;3.90;;
6821;SDS011;3449;48.728;8.968;2022-09-23T04:53:05;4.60;;;3.87;;
6821;SDS011;3449;48.728;8.968;2022-09-23T04:55:32;3.60;;;3.30;;
6821;SDS011;3449;48.728;8.968;2022-09-23T04:58:00;7.43;;;4.13;;
6821;SDS011;3449;48.728;8.968;2022-09-23T05:00:27;3.80;;;3.30;;
6821;SDS011;3449;48.728;8.968;2022-09-23T05:02:54;7.93;;;3.93;;
6821;SDS011;3449;48.728;8.968;2022-09-23T05:05:21;8.53;;;4.70;;
6821;SDS011;3449;48.728;8.968;2022-09-23T05:07:48;6.53;;;4.40;;
6821;SDS011;3449;48.728;8.968;2022-09-23T05:10:16;6.70;;;3.53;;
6821;SDS011;3449;48.728;8.968;2022-09-23T05:12:43;6.80;;;4.90;;
6821;SDS011;3449;48.728;8.968;2022-09-23T05:15:11;7.60;;;5.20;;
6821;SDS011;3449;48.728;8.968;2022-09-23T05:17:39;6.13;;;5.03;;
6821;SDS011;3449;48.728;8.968;2022-09-23T05:20:07;10.00;;;7.13;;
6821;SDS011;3449;48.728;8.968;2022-09-23T05:22:34;11.77;;;9.87;;
6821;SDS011;3449;48.728;8.968;2022-09-23T05:25:01;7.57;;;6.87;;
6821;SDS011;3449;48.728;8.968;2022-09-23T05:27:28;9.43;;;6.10;;
6821;SDS011;3449;48.728;8.968;2022-09-23T05:29:55;5.47;;;4.50;;
6821;SDS011;3449;48.728;8.968;2022-09-23T05:32:23;7.47;;;4.67;;
6821;SDS011;3449;48.728;8.968;2022-09-23T05:34:50;6.63;;;5.13;;
6821;SDS011;3449;48.728;8.968;2022-09-23T05:37:19;5.90;;;4.37;;
6821;SDS011;3449;48.728;8.968;2022-09-23T05:39:46;8.77;;;3.90;;
6821;SDS011;3449;48.728;8.968;2022-09-23T05:42:14;10.40;;;4.17;;
6821;SDS011;3449;48.728;8.968;2022-09-23T05:44:42;8.23;;;4.57;;
6821;SDS011;3449;48.728;8.968;2022-09-23T05:47:11;8.60;;;4.53;;
6821;SDS011;3449;48.728;8.968;2022-09-23T05:49:39;8.07;;;5.27;;
6821;SDS011;3449;48.728;8.968;2022-09-23T05:52:06;7.13;;;4.30;;
6821;SDS011;3449;48.728;8.968;2022-09-23T05:54:33;5.73;;;3.77;;
6821;SDS011;3449;48.728;8.968;2022-09-23T05:57:00;5.13;;;4.23;;
6821;SDS011;3449;48.728;8.968;2022-09-23T05:59:27;5.40;;;4.00;;
6821;SDS011;3449;48.728;8.968;2022-09-23T06:01:54;12.13;;;4.33;;
6821;SDS011;3449;48.728;8.968;2022-09-23T06:04:21;5.33;;;4.27;;
6821;SDS011;3449;48.728;8.968;2022-09-23T06:06:49;10.07;;;4.40;;
6821;SDS011;3449;48.728;8.968;2022-09-23T06:09:17;7.80;;;4.30;;
6821;SDS011;3449;48.728;8.968;2022-09-23T06:11:44;7.10;;;4.30;;
6821;SDS011;3449;48.728;8.968;2022-09-23T06:14:11;5.50;;;3.90;;
6821;SDS011;3449;48.728;8.968;2022-09-23T06:16:39;5.00;;;3.80;;
6821;SDS011;3449;48.728;8.968;2022-09-23T06:19:07;7.80;;;4.40;;
6821;SDS011;3449;48.728;8.968;2022-09-23T06:21:35;5.30;;;4.30;;
6821;SDS011;3449;48.728;8.968;2022-09-23T06:24:04;5.90;;;4.17;;
6821;SDS011;3449;48.728;8.968;2022-09-23T06:26:32;6.23;;;4.40;;
6821;SDS011;3449;48.728;8.968;2022-09-23T06:28:59;5.50;;;4.30;;
6821;SDS011;3449;48.728;8.968;2022-09-23T06:31:27;9.43;;;4.70;;
6821;SDS011;3449;48.728;8.968;2022-09-23T06:33:54;7.43;;;3.73;;
6821;SDS011;3449;48.728;8.968;2022-09-23T06:36:21;4.70;;;3.43;;
6821;SDS011;3449;48.728;8.968;2022-09-23T06:38:49;4.50;;;3.57;;
6821;SDS011;3449;48.728;8.968;2022-09-23T06:41:17;7.40;;;4.37;;
6821;SDS011;3449;48.728;8.968;2022-09-23T06:43:45;5.77;;;4.13;;
6821;SDS011;3449;48.728;8.968;2022-09-23T06:46:15;4.97;;;3.80;;
6821;SDS011;3449;48.728;8.968;2022-09-23T06:48:42;5.30;;;3.53;;
6821;SDS011;3449;48.728;8.968;2022-09-23T06:51:10;4.83;;;4.23;;
6821;SDS011;3449;48.728;8.968;2022-09-23T06:53:43;5.40;;;3.47;;
6821;SDS011;3449;48.728;8.968;2022-09-23T06:56:11;3.97;;;3.43;;
6821;SDS011;3449;48.728;8.968;2022-09-23T06:58:39;4.53;;;3.43;;
6821;SDS011;3449;48.728;8.968;2022-09-23T07:01:08;4.83;;;3.53;;
6821;SDS011;3449;48.728;8.968;2022-09-23T07:03:36;6.30;;;3.40;;
6821;SDS011;3449;48.728;8.968;2022-09-23T07:06:04;3.80;;;2.90;;
6821;SDS011;3449;48.728;8.968;2022-09-23T07:08:32;5.60;;;3.27;;
6821;SDS011;3449;48.728;8.968;2022-09-23T07:11:00;4.73;;;3.60;;
6821;SDS011;3449;48.728;8.968;2022-09-23T07:13:28;4.37;;;3.20;;
6821;SDS011;3449;48.728;8.968;2022-09-23T07:15:58;3.00;;;2.67;;
6821;SDS011;3449;48.728;8.968;2022-09-23T07:18:26;3.60;;;3.00;;
6821;SDS011;3449;48.728;8.968;2022-09-23T07:20:55;6.23;;;3.97;;
6821;SDS011;3449;48.728;8.968;2022-09-23T07:23:22;4.00;;;3.00;;
6821;SDS011;3449;48.728;8.968;2022-09-23T07:25:50;5.23;;;3.20;;
6821;SDS011;3449;48.728;8.968;2022-09-23T07:28:17;4.27;;;3.03;;
6821;SDS011;3449;48.728;8.968;2022-09-23T07:30:44;3.83;;;3.10;;
6821;SDS011;3449;48.728;8.968;2022-09-23T07:33:13;6.90;;;2.93;;
6821;SDS011;3449;48.728;8.968;2022-09-23T07:35:40;3.17;;;2.80;;
6821;SDS011;3449;48.728;8.968;2022-09-23T07:38:08;3.80;;;3.07;;
6821;SDS011;3449;48.728;8.968;2022-09-23T07:40:36;5.47;;;3.77;;
6821;SDS011;3449;48.728;8.968;2022-09-23T07:43:03;10.10;;;2.90;;
6821;SDS011;3449;48.728;8.968;2022-09-23T07:45:30;3.70;;;2.87;;
6821;SDS011;3449;48.728;8.968;2022-09-23T07:47:58;3.27;;;2.97;;
6821;SDS011;3449;48.728;8.968;2022-09-23T07:50:27;2.70;;;2.50;;
6821;SDS011;3449;48.728;8.968;2022-09-23T07:52:56;2.53;;;2.33;;
6821;SDS011;3449;48.728;8.968;2022-09-23T07:55:23;5.13;;;2.90;;
6821;SDS011;3449;48.728;8.968;2022-09-23T07:57:50;5.47;;;2.40;;
6821;SDS011;3449;48.728;8.968;2022-09-23T08:00:16;2.67;;;2.47;;
6821;SDS011;3449;48.728;8.968;2022-09-23T08:02:43;3.50;;;3.03;;
6821;SDS011;3449;48.728;8.968;2022-09-23T08:05:10;4.60;;;2.80;;
6821;SDS011;3449;48.728;8.968;2022-09-23T08:07:38;2.70;;;2.17;;
6821;SDS011;3449;48.728;8.968;2022-09-23T08:10:06;3.07;;;2.00;;
6821;SDS011;3449;48.728;8.968;2022-09-23T08:12:33;3.13;;;2.40;;
6821;SDS011;3449;48.728;8.968;2022-09-23T08:15:00;3.73;;;3.00;;
6821;SDS011;3449;48.728;8.968;2022-09-23T08:17:28;3.27;;;2.77;;
6821;SDS011;3449;48.728;8.968;2022-09-23T08:19:55;3.97;;;2.20;;
6821;SDS011;3449;48.728;8.968;2022-09-23T08:22:22;3.20;;;2.07;;
6821;SDS011;3449;48.728;8.968;2022-09-23T08:24:50;2.07;;;1.93;;
6821;SDS011;3449;48.728;8.968;2022-09-23T08:27:17;2.47;;;2.23;;
6821;SDS011;3449;48.728;8.968;2022-09-23T08:29:44;7.13;;;2.20;;
6821;SDS011;3449;48.728;8.968;2022-09-23T08:32:11;2.63;;;2.43;;
6821;SDS011;3449;48.728;8.968;2022-09-23T08:34:38;2.60;;;2.40;;
6821;SDS011;3449;48.728;8.968;2022-09-23T08:37:08;1.87;;;1.77;;
6821;SDS011;3449;48.728;8.968;2022-09-23T08:39:35;10.40;;;2.10;;
6821;SDS011;3449;48.728;8.968;2022-09-23T08:42:06;2.20;;;2.00;;
6821;SDS011;3449;48.728;8.968;2022-09-23T08:44:42;3.27;;;2.30;;
6821;SDS011;3449;48.728;8.968;2022-09-23T08:47:16;3.50;;;2.87;;
6821;SDS011;3449;48.728;8.968;2022-09-23T08:49:49;3.70;;;1.90;;
6821;SDS011;3449;48.728;8.968;2022-09-23T08:52:22;2.80;;;2.03;;
6821;SDS011;3449;48.728;8.968;2022-09-23T08:54:54;2.77;;;2.53;;
6821;SDS011;3449;48.728;8.968;2022-09-23T08:57:27;2.50;;;2.30;;
6821;SDS011;3449;48.728;8.968;2022-09-23T09:00:03;2.80;;;2.20;;
6821;SDS011;3449;48.728;8.968;2022-09-23T09:02:32;2.80;;;2.30;;
6821;SDS011;3449;48.728;8.968;2022-09-23T09:05:01;3.77;;;2.73;;
6821;SDS011;3449;48.728;8.968;2022-09-23T09:07:31;2.73;;;2.53;;
6821;SDS011;3449;48.728;8.968;2022-09-23T09:10:02;2.47;;;2.27;;
6821;SDS011;3449;48.728;8.968;2022-09-23T09:12:38;2.57;;;2.13;;
6821;SDS011;3449;48.728;8.968;2022-09-23T09:15:10;2.60;;;2.40;;
6821;SDS011;3449;48.728;8.968;2022-09-23T09:17:40;2.53;;;2.27;;
6821;SDS011;3449;48.728;8.968;2022-09-23T09:20:21;2.40;;;2.20;;
6821;SDS011;3449;48.728;8.968;2022-09-23T09:22:52;2.90;;;2.27;;
6821;SDS011;3449;48.728;8.968;2022-09-23T09:28:14;2.30;;;2.10;;
6821;SDS011;3449;48.728;8.968;2022-09-23T09:30:44;2.10;;;1.90;;
6821;SDS011;3449;48.728;8.968;2022-09-23T09:33:16;3.53;;;2.60;;
6821;SDS011;3449;48.728;8.968;2022-09-23T09:35:51;2.43;;;2.23;;
6821;SDS011;3449;48.728;8.968;2022-09-23T09:38:27;4.40;;;3.00;;
6821;SDS011;3449;48.728;8.968;2022-09-23T09:40:57;2.63;;;2.43;;
6821;SDS011;3449;48.728;8.968;2022-09-23T09:43:36;4.53;;;2.40;;
6821;SDS011;3449;48.728;8.968;2022-09-23T09:46:05;3.40;;;2.37;;
6821;SDS011;3449;48.728;8.968;2022-09-23T09:48:44;2.43;;;2.23;;
6821;SDS011;3449;48.728;8.968;2022-09-23T09:51:19;3.00;;;2.30;;
6821;SDS011;3449;48.728;8.968;2022-09-23T09:53:47;3.47;;;2.43;;
6821;SDS011;3449;48.728;8.968;2022-09-23T09:56:16;6.40;;;2.13;;
6821;SDS011;3449;48.728;8.968;2022-09-23T09:58:49;2.03;;;1.87;;
6821;SDS011;3449;48.728;8.968;2022-09-23T10:01:19;2.93;;;2.23;;
6821;SDS011;3449;48.728;8.968;2022-09-23T10:03:57;3.20;;;1.60;;
6821;SDS011;3449;48.728;8.968;2022-09-23T10:07:10;3.40;;;2.50;;
6821;SDS011;3449;48.728;8.968;2022-09-23T10:10:12;2.87;;;2.60;;
6821;SDS011;3449;48.728;8.968;2022-09-23T10:12:55;3.83;;;2.83;;
6821;SDS011;3449;48.728;8.968;2022-09-23T10:18:25;3.77;;;2.13;;
6821;SDS011;3449;48.728;8.968;2022-09-23T10:21:09;2.40;;;1.90;;
6821;SDS011;3449;48.728;8.968;2022-09-23T10:24:25;3.33;;;2.27;;
6821;SDS011;3449;48.728;8.968;2022-09-23T10:27:28;2.67;;;2.23;;
6821;SDS011;3449;48.728;8.968;2022-09-23T10:30:18;2.10;;;1.93;;
6821;SDS011;3449;48.728;8.968;2022-09-23T10:33:27;3.70;;;2.23;;
6821;SDS011;3449;48.728;8.968;2022-09-23T10:35:58;2.10;;;1.90;;
6821;SDS011;3449;48.728;8.968;2022-09-23T10:38:28;2.40;;;1.83;;
6821;SDS011;3449;48.728;8.968;2022-09-23T10:40:54;2.63;;;2.17;;
6821;SDS011;3449;48.728;8.968;2022-09-23T10:43:41;2.60;;;2.07;;
6821;SDS011;3449;48.728;8.968;2022-09-23T10:46:35;3.90;;;2.13;;
6821;SDS011;3449;48.728;8.968;2022-09-23T10:52:10;3.10;;;1.43;;
6821;SDS011;3449;48.728;8.968;2022-09-23T10:54:55;4.93;;;2.20;;
6821;SDS011;3449;48.728;8.968;2022-09-23T10:57:32;4.13;;;1.77;;
6821;SDS011;3449;48.728;8.968;2022-09-23T11:00:19;4.20;;;1.60;;
6821;SDS011;3449;48.728;8.968;2022-09-23T11:02:53;2.17;;;1.97;;
6821;SDS011;3449;48.728;8.968;2022-09-23T11:05:36;2.53;;;2.33;;
6821;SDS011;3449;48.728;8.968;2022-09-23T11:08:09;2.70;;;2.50;;
6821;SDS011;3449;48.728;8.968;2022-09-23T11:10:57;7.10;;;2.60;;
6821;SDS011;3449;48.728;8.968;2022-09-23T11:13:39;2.97;;;2.30;;
6821;SDS011;3449;48.728;8.968;2022-09-23T11:16:19;2.83;;;2.47;;
6821;SDS011;3449;48.728;8.968;2022-09-23T11:18:56;3.13;;;2.47;;
6821;SDS011;3449;48.728;8.968;2022-09-23T11:24:31;3.57;;;2.37;;
6821;SDS011;3449;48.728;8.968;2022-09-23T11:27:25;3.90;;;2.40;;
6821;SDS011;3449;48.728;8.968;2022-09-23T11:30:06;3.23;;;2.47;;
6821;SDS011;3449;48.728;8.968;2022-09-23T11:32:51;3.17;;;2.00;;
6821;SDS011;3449;48.728;8.968;2022-09-23T11:35:28;2.60;;;2.13;;
6821;SDS011;3449;48.728;8.968;2022-09-23T11:38:02;2.40;;;2.20;;
6821;SDS011;3449;48.728;8.968;2022-09-23T11:40:33;3.37;;;3.07;;
6821;SDS011;3449;48.728;8.968;2022-09-23T11:43:02;4.67;;;2.90;;
6821;SDS011;3449;48.728;8.968;2022-09-23T11:45:35;5.90;;;3.20;;
6821;SDS011;3449;48.728;8.968;2022-09-23T11:48:08;3.30;;;2.60;;
6821;SDS011;3449;48.728;8.968;2022-09-23T11:50:40;3.70;;;2.50;;
6821;SDS011;3449;48.728;8.968;2022-09-23T11:53:17;3.10;;;2.40;;
6821;SDS011;3449;48.728;8.968;2022-09-23T11:55:50;5.77;;;2.90;;
6821;SDS011;3449;48.728;8.968;2022-09-23T11:58:22;2.53;;;2.17;;
6821;SDS011;3449;48.728;8.968;2022-09-23T12:00:53;2.93;;;2.10;;
6821;SDS011;3449;48.728;8.968;2022-09-23T12:03:26;3.80;;;2.70;;
6821;SDS011;3449;48.728;8.968;2022-09-23T12:06:04;3.10;;;2.67;;
6821;SDS011;3449;48.728;8.968;2022-09-23T12:08:38;4.43;;;2.70;;
6821;SDS011;3449;48.728;8.968;2022-09-23T12:11:06;3.30;;;2.70;;
6821;SDS011;3449;48.728;8.968;2022-09-23T12:13:43;3.87;;;3.07;;
6821;SDS011;3449;48.728;8.968;2022-09-23T12:19:49;3.37;;;2.90;;
6821;SDS011;3449;48.728;8.968;2022-09-23T12:22:50;2.50;;;2.30;;
6821;SDS011;3449;48.728;8.968;2022-09-23T12:25:36;3.13;;;2.43;;
6821;SDS011;3449;48.728;8.968;2022-09-23T12:28:12;3.23;;;2.77;;
6821;SDS011;3449;48.728;8.968;2022-09-23T12:30:50;2.87;;;2.37;;
6821;SDS011;3449;48.728;8.968;2022-09-23T12:33:39;2.57;;;1.80;;
6821;SDS011;3449;48.728;8.968;2022-09-23T12:36:14;5.27;;;2.90;;
6821;SDS011;3449;48.728;8.968;2022-09-23T12:38:45;2.80;;;2.60;;
6821;SDS011;3449;48.728;8.968;2022-09-23T12:41:22;2.60;;;2.40;;
6821;SDS011;3449;48.728;8.968;2022-09-23T12:43:55;4.50;;;2.57;;
6821;SDS011;3449;48.728;8.968;2022-09-23T12:46:38;2.70;;;2.50;;
6821;SDS011;3449;48.728;8.968;2022-09-23T12:49:19;2.70;;;2.50;;
6821;SDS011;3449;48.728;8.968;2022-09-23T12:54:38;5.50;;;2.70;;
6821;SDS011;3449;48.728;8.968;2022-09-23T12:57:10;3.33;;;2.73;;
6821;SDS011;3449;48.728;8.968;2022-09-23T12:59:57;4.33;;;3.37;;
6821;SDS011;3449;48.728;8.968;2022-09-23T13:02:26;6.90;;;3.60;;
6821;SDS011;3449;48.728;8.968;2022-09-23T13:05:03;2.87;;;2.57;;
6821;SDS011;3449;48.728;8.968;2022-09-23T13:08:03;7.40;;;2.80;;
6821;SDS011;3449;48.728;8.968;2022-09-23T13:10:36;4.40;;;2.83;;
6821;SDS011;3449;48.728;8.968;2022-09-23T13:13:10;3.20;;;2.90;;
6821;SDS011;3449;48.728;8.968;2022-09-23T13:15:45;13.67;;;3.10;;
6821;SDS011;3449;48.728;8.968;2022-09-23T13:24:33;10.53;;;3.47;;
6821;SDS011;3449;48.728;8.968;2022-09-23T13:27:14;4.03;;;3.00;;
6821;SDS011;3449;48.728;8.968;2022-09-23T13:29:49;8.93;;;4.17;;
6821;SDS011;3449;48.728;8.968;2022-09-23T13:32:19;5.13;;;3.37;;
6821;SDS011;3449;48.728;8.968;2022-09-23T13:34:52;5.30;;;3.77;;
6821;SDS011;3449;48.728;8.968;2022-09-23T13:37:23;4.23;;;3.47;;
6821;SDS011;3449;48.728;8.968;2022-09-23T13:40:05;3.80;;;3.50;;
6821;SDS011;3449;48.728;8.968;2022-09-23T13:42:41;3.70;;;3.40;;
6821;SDS011;3449;48.728;8.968;2022-09-23T13:45:15;7.63;;;3.10;;
6821;SDS011;3449;48.728;8.968;2022-09-23T13:47:44;13.10;;;3.50;;
6821;SDS011;3449;48.728;8.968;2022-09-23T13:50:13;3.83;;;3.13;;
6821;SDS011;3449;48.728;8.968;2022-09-23T13:52:44;4.50;;;3.23;;
6821;SDS011;3449;48.728;8.968;2022-09-23T13:55:23;8.53;;;3.37;;
6821;SDS011;3449;48.728;8.968;2022-09-23T13:57:55;5.30;;;3.47;;
6821;SDS011;3449;48.728;8.968;2022-09-23T14:00:25;5.90;;;3.30;;
6821;SDS011;3449;48.728;8.968;2022-09-23T14:02:57;3.53;;;3.17;;
6821;SDS011;3449;48.728;8.968;2022-09-23T14:05:25;4.07;;;3.30;;
6821;SDS011;3449;48.728;8.968;2022-09-23T14:07:56;3.70;;;3.33;;
6821;SDS011;3449;48.728;8.968;2022-09-23T14:10:25;7.63;;;3.50;;
6821;SDS011;3449;48.728;8.968;2022-09-23T14:12:53;6.40;;;3.83;;
6821;SDS011;3449;48.728;8.968;2022-09-23T14:15:27;6.33;;;3.77;;
6821;SDS011;3449;48.728;8.968;2022-09-23T14:18:03;4.60;;;3.00;;
6821;SDS011;3449;48.728;8.968;2022-09-23T14:20:44;4.20;;;3.23;;
6821;SDS011;3449;48.728;8.968;2022-09-23T14:23:15;3.87;;;3.40;;
6821;SDS011;3449;48.728;8.968;2022-09-23T14:25:47;4.13;;;3.13;;
6821;SDS011;3449;48.728;8.968;2022-09-23T14:28:31;5.20;;;3.50;;
6821;SDS011;3449;48.728;8.968;2022-09-23T14:31:00;3.73;;;3.23;;
6821;SDS011;3449;48.728;8.968;2022-09-23T14:33:29;4.73;;;3.30;;
6821;SDS011;3449;48.728;8.968;2022-09-23T14:36:00;5.33;;;3.20;;
6821;SDS011;3449;48.728;8.968;2022-09-23T14:38:30;12.60;;;3.93;;
6821;SDS011;3449;48.728;8.968;2022-09-23T14:41:17;6.10;;;3.80;;
6821;SDS011;3449;48.728;8.968;2022-09-23T14:43:48;6.00;;;3.00;;
6821;SDS011;3449;48.728;8.968;2022-09-23T14:46:20;3.50;;;2.87;;
6821;SDS011;3449;48.728;8.968;2022-09-23T14:48:55;7.83;;;3.70;;
6821;SDS011;3449;48.728;8.968;2022-09-23T14:51:30;3.77;;;3.47;;
6821;SDS011;3449;48.728;8.968;2022-09-23T14:57:25;4.50;;;3.80;;
6821;SDS011;3449;48.728;8.968;2022-09-23T14:59:54;4.43;;;3.40;;
6821;SDS011;3449;48.728;8.968;2022-09-23T15:02:29;5.10;;;3.77;;
6821;SDS011;3449;48.728;8.968;2022-09-23T15:05:11;4.87;;;2.93;;
6821;SDS011;3449;48.728;8.968;2022-09-23T15:07:41;4.40;;;3.10;;
6821;SDS011;3449;48.728;8.968;2022-09-23T15:10:18;3.83;;;3.03;;
6821;SDS011;3449;48.728;8.968;2022-09-23T15:12:48;4.33;;;2.93;;
6821;SDS011;3449;48.728;8.968;2022-09-23T15:15:17;3.13;;;2.83;;
6821;SDS011;3449;48.728;8.968;2022-09-23T15:17:46;9.40;;;4.33;;
6821;SDS011;3449;48.728;8.968;2022-09-23T15:20:17;7.30;;;3.90;;
6821;SDS011;3449;48.728;8.968;2022-09-23T15:22:47;6.60;;;4.00;;
6821;SDS011;3449;48.728;8.968;2022-09-23T15:25:18;3.90;;;3.13;;
6821;SDS011;3449;48.728;8.968;2022-09-23T15:27:55;6.43;;;4.00;;
6821;SDS011;3449;48.728;8.968;2022-09-23T15:30:24;4.17;;;3.30;;
6821;SDS011;3449;48.728;8.968;2022-09-23T15:32:53;4.83;;;4.13;;
6821;SDS011;3449;48.728;8.968;2022-09-23T15:35:20;4.07;;;3.17;;
6821;SDS011;3449;48.728;8.968;2022-09-23T15:37:49;7.33;;;3.93;;
6821;SDS011;3449;48.728;8.968;2022-09-23T15:40:19;7.27;;;4.17;;
6821;SDS011;3449;48.728;8.968;2022-09-23T15:42:48;6.30;;;4.10;;
6821;SDS011;3449;48.728;8.968;2022-09-23T15:45:17;6.77;;;3.90;;
6821;SDS011;3449;48.728;8.968;2022-09-23T15:47:46;5.83;;;4.00;;
6821;SDS011;3449;48.728;8.968;2022-09-23T15:50:17;5.13;;;3.73;;
6821;SDS011;3449;48.728;8.968;2022-09-23T15:52:44;7.53;;;3.87;;
6821;SDS011;3449;48.728;8.968;2022-09-23T15:55:15;6.80;;;4.20;;
6821;SDS011;3449;48.728;8.968;2022-09-23T15:57:46;6.47;;;4.37;;
6821;SDS011;3449;48.728;8.968;2022-09-23T16:00:13;4.83;;;3.50;;
6821;SDS011;3449;48.728;8.968;2022-09-23T16:02:41;3.60;;;3.30;;
6821;SDS011;3449;48.728;8.968;2022-09-23T16:05:12;3.50;;;3.20;;
6821;SDS011;3449;48.728;8.968;2022-09-23T16:07:46;6.53;;;3.90;;
6821;SDS011;3449;48.728;8.968;2022-09-23T16:10:16;2.90;;;2.70;;
6821;SDS011;3449;48.728;8.968;2022-09-23T16:12:44;5.67;;;4.23;;